sensor_id;sensor_type;location;lat;lon;timestamp;temperature;humidity
28171;DHT22;15458;53.346;-1.688;2023-07-29T00:02:11;15.90;99.90
28171;DHT22;15458;53.346;-1.688;2023-07-29T00:04:37;15.90;99.90
28171;DHT22;15458;53.346;-1.688;2023-07-29T00:07:02;15.90;99.90
28171;DHT22;15458;53.346;-1.688;2023-07-29T00:09:28;15.90;99.90
28171;DHT22;15458;53.346;-1.688;2023-07-29T00:11:54;15.90;99.90
28171;DHT22;15458;53.346;-1.688;2023-07-29T00:14:19;15.80;99.90
28171;DHT22;15458;53.346;-1.688;2023-07-29T00:16:45;15.80;99.90
28171;DHT22;15458;53.346;-1.688;2023-07-29T00:19:11;15.80;99.90
28171;DHT22;15458;53.346;-1.688;2023-07-29T00:21:36;15.80;99.90
28171;DHT22;15458;53.346;-1.688;2023-07-29T00:24:02;15.80;99.90
28171;DHT22;15458;53.346;-1.688;2023-07-29T00:26:28;15.80;99.90
28171;DHT22;15458;53.346;-1.688;2023-07-29T00:28:57;15.80;99.90
28171;DHT22;15458;53.346;-1.688;2023-07-29T00:31:23;15.80;99.90
28171;DHT22;15458;53.346;-1.688;2023-07-29T00:33:49;15.80;99.90
28171;DHT22;15458;53.346;-1.688;2023-07-29T00:36:15;15.70;99.90
28171;DHT22;15458;53.346;-1.688;2023-07-29T00:38:41;15.70;99.90
28171;DHT22;15458;53.346;-1.688;2023-07-29T00:41:07;15.70;99.90
28171;DHT22;15458;53.346;-1.688;2023-07-29T00:43:33;15.60;99.90
28171;DHT22;15458;53.346;-1.688;2023-07-29T00:46:00;15.60;99.90
28171;DHT22;15458;53.346;-1.688;2023-07-29T00:48:26;15.50;99.90
28171;DHT22;15458;53.346;-1.688;2023-07-29T00:50:52;15.50;99.90
28171;DHT22;15458;53.346;-1.688;2023-07-29T00:53:18;15.40;99.90
28171;DHT22;15458;53.346;-1.688;2023-07-29T00:55:43;15.40;99.90
28171;DHT22;15458;53.346;-1.688;2023-07-29T00:58:10;15.40;99.90
28171;DHT22;15458;53.346;-1.688;2023-07-29T01:00:35;15.40;99.90
28171;DHT22;15458;53.346;-1.688;2023-07-29T01:03:02;15.40;99.90
28171;DHT22;15458;53.346;-1.688;2023-07-29T01:05:32;15.30;99.90
28171;DHT22;15458;53.346;-1.688;2023-07-29T01:08:00;15.30;99.90
28171;DHT22;15458;53.346;-1.688;2023-07-29T01:10:46;15.30;99.90
28171;DHT22;15458;53.346;-1.688;2023-07-29T01:13:22;15.30;99.90
28171;DHT22;15458;53.346;-1.688;2023-07-29T01:16:55;15.30;99.90
28171;DHT22;15458;53.346;-1.688;2023-07-29T01:19:21;15.30;99.90
28171;DHT22;15458;53.346;-1.688;2023-07-29T01:21:51;15.30;99.90
28171;DHT22;15458;53.346;-1.688;2023-07-29T01:24:17;15.30;99.90
28171;DHT22;15458;53.346;-1.688;2023-07-29T01:26:43;15.30;99.90
28171;DHT22;15458;53.346;-1.688;2023-07-29T01:29:08;15.30;99.90
28171;DHT22;15458;53.346;-1.688;2023-07-29T01:31:43;15.20;99.90
28171;DHT22;15458;53.346;-1.688;2023-07-29T01:36:49;15.20;99.90
28171;DHT22;15458;53.346;-1.688;2023-07-29T01:39:16;15.20;99.90
28171;DHT22;15458;53.346;-1.688;2023-07-29T01:41:43;15.20;99.90
28171;DHT22;15458;53.346;-1.688;2023-07-29T01:44:10;15.30;99.90
28171;DHT22;15458;53.346;-1.688;2023-07-29T01:46:37;15.20;99.90
28171;DHT22;15458;53.346;-1.688;2023-07-29T01:49:02;15.20;99.90
28171;DHT22;15458;53.346;-1.688;2023-07-29T01:51:28;15.20;99.90
28171;DHT22;15458;53.346;-1.688;2023-07-29T01:53:54;15.20;99.90
28171;DHT22;15458;53.346;-1.688;2023-07-29T01:56:21;15.10;99.90
28171;DHT22;15458;53.346;-1.688;2023-07-29T01:58:46;15.10;99.90
28171;DHT22;15458;53.346;-1.688;2023-07-29T02:01:12;15.10;99.90
28171;DHT22;15458;53.346;-1.688;2023-07-29T02:03:38;15.10;99.90
28171;DHT22;15458;53.346;-1.688;2023-07-29T02:06:03;15.00;99.90
28171;DHT22;15458;53.346;-1.688;2023-07-29T02:08:30;15.00;99.90
28171;DHT22;15458;53.346;-1.688;2023-07-29T02:10:56;15.00;99.90
28171;DHT22;15458;53.346;-1.688;2023-07-29T02:13:22;15.00;99.90
28171;DHT22;15458;53.346;-1.688;2023-07-29T02:15:47;15.00;99.90
28171;DHT22;15458;53.346;-1.688;2023-07-29T02:18:13;15.00;99.90
28171;DHT22;15458;53.346;-1.688;2023-07-29T02:20:38;15.00;99.90
28171;DHT22;15458;53.346;-1.688;2023-07-29T02:23:04;15.10;99.90
28171;DHT22;15458;53.346;-1.688;2023-07-29T02:25:30;15.10;99.90
28171;DHT22;15458;53.346;-1.688;2023-07-29T02:27:55;15.10;99.90
28171;DHT22;15458;53.346;-1.688;2023-07-29T02:30:21;15.10;99.90
28171;DHT22;15458;53.346;-1.688;2023-07-29T02:32:47;15.10;99.90
28171;DHT22;15458;53.346;-1.688;2023-07-29T02:35:12;15.10;99.90
28171;DHT22;15458;53.346;-1.688;2023-07-29T02:37:38;15.10;99.90
28171;DHT22;15458;53.346;-1.688;2023-07-29T02:40:04;15.00;99.90
28171;DHT22;15458;53.346;-1.688;2023-07-29T02:42:31;15.00;99.90
28171;DHT22;15458;53.346;-1.688;2023-07-29T02:44:57;15.00;99.90
28171;DHT22;15458;53.346;-1.688;2023-07-29T02:47:22;15.00;99.90
28171;DHT22;15458;53.346;-1.688;2023-07-29T02:49:48;14.90;99.90
28171;DHT22;15458;53.346;-1.688;2023-07-29T02:52:14;14.90;99.90
28171;DHT22;15458;53.346;-1.688;2023-07-29T02:54:39;14.80;99.90
28171;DHT22;15458;53.346;-1.688;2023-07-29T02:57:05;14.80;99.90
28171;DHT22;15458;53.346;-1.688;2023-07-29T02:59:30;14.80;99.90
28171;DHT22;15458;53.346;-1.688;2023-07-29T03:01:56;14.70;99.90
28171;DHT22;15458;53.346;-1.688;2023-07-29T03:04:22;14.70;99.90
28171;DHT22;15458;53.346;-1.688;2023-07-29T03:06:48;14.70;99.90
28171;DHT22;15458;53.346;-1.688;2023-07-29T03:09:14;14.70;99.90
28171;DHT22;15458;53.346;-1.688;2023-07-29T03:11:40;14.70;99.90
28171;DHT22;15458;53.346;-1.688;2023-07-29T03:14:05;14.60;99.90
28171;DHT22;15458;53.346;-1.688;2023-07-29T03:16:31;14.60;99.90
28171;DHT22;15458;53.346;-1.688;2023-07-29T03:18:57;14.60;99.90
28171;DHT22;15458;53.346;-1.688;2023-07-29T03:21:23;14.60;99.90
28171;DHT22;15458;53.346;-1.688;2023-07-29T03:23:48;14.60;99.90
28171;DHT22;15458;53.346;-1.688;2023-07-29T03:26:14;14.60;99.90
28171;DHT22;15458;53.346;-1.688;2023-07-29T03:28:41;14.60;99.90
28171;DHT22;15458;53.346;-1.688;2023-07-29T03:31:08;14.60;99.90
28171;DHT22;15458;53.346;-1.688;2023-07-29T03:33:34;14.60;99.90
28171;DHT22;15458;53.346;-1.688;2023-07-29T03:36:00;14.70;99.90
28171;DHT22;15458;53.346;-1.688;2023-07-29T03:38:26;14.70;99.90
28171;DHT22;15458;53.346;-1.688;2023-07-29T03:40:53;14.70;99.90
28171;DHT22;15458;53.346;-1.688;2023-07-29T03:43:25;14.70;99.90
28171;DHT22;15458;53.346;-1.688;2023-07-29T03:46:08;14.70;99.90
28171;DHT22;15458;53.346;-1.688;2023-07-29T03:48:34;14.60;99.90
28171;DHT22;15458;53.346;-1.688;2023-07-29T03:51:00;14.60;99.90
28171;DHT22;15458;53.346;-1.688;2023-07-29T03:53:25;14.60;99.90
28171;DHT22;15458;53.346;-1.688;2023-07-29T03:55:51;14.50;99.90
28171;DHT22;15458;53.346;-1.688;2023-07-29T03:58:17;14.50;99.90
28171;DHT22;15458;53.346;-1.688;2023-07-29T04:00:42;14.50;99.90
28171;DHT22;15458;53.346;-1.688;2023-07-29T04:03:09;14.50;99.90
28171;DHT22;15458;53.346;-1.688;2023-07-29T04:05:34;14.40;99.90
28171;DHT22;15458;53.346;-1.688;2023-07-29T04:08:00;14.40;99.90
28171;DHT22;15458;53.346;-1.688;2023-07-29T04:10:25;14.40;99.90
28171;DHT22;15458;53.346;-1.688;2023-07-29T04:12:51;14.30;99.90
28171;DHT22;15458;53.346;-1.688;2023-07-29T04:15:17;14.30;99.90
28171;DHT22;15458;53.346;-1.688;2023-07-29T04:17:42;14.30;99.90
28171;DHT22;15458;53.346;-1.688;2023-07-29T04:20:09;14.30;99.90
28171;DHT22;15458;53.346;-1.688;2023-07-29T04:22:34;14.20;99.90
28171;DHT22;15458;53.346;-1.688;2023-07-29T04:25:00;14.20;99.90
28171;DHT22;15458;53.346;-1.688;2023-07-29T04:27:26;14.20;99.90
28171;DHT22;15458;53.346;-1.688;2023-07-29T04:29:51;14.20;99.90
28171;DHT22;15458;53.346;-1.688;2023-07-29T04:32:17;14.10;99.90
28171;DHT22;15458;53.346;-1.688;2023-07-29T04:34:43;14.10;99.90
28171;DHT22;15458;53.346;-1.688;2023-07-29T04:37:08;14.10;99.90
28171;DHT22;15458;53.346;-1.688;2023-07-29T04:39:34;14.10;99.90
28171;DHT22;15458;53.346;-1.688;2023-07-29T04:41:59;14.10;99.90
28171;DHT22;15458;53.346;-1.688;2023-07-29T04:44:26;14.10;99.90
28171;DHT22;15458;53.346;-1.688;2023-07-29T04:46:52;14.10;99.90
28171;DHT22;15458;53.346;-1.688;2023-07-29T04:49:17;14.10;99.90
28171;DHT22;15458;53.346;-1.688;2023-07-29T04:51:43;14.10;99.90
28171;DHT22;15458;53.346;-1.688;2023-07-29T04:54:08;14.10;99.90
28171;DHT22;15458;53.346;-1.688;2023-07-29T04:56:34;14.10;99.90
28171;DHT22;15458;53.346;-1.688;2023-07-29T04:59:00;14.10;99.90
28171;DHT22;15458;53.346;-1.688;2023-07-29T05:01:25;14.10;99.90
28171;DHT22;15458;53.346;-1.688;2023-07-29T05:03:51;14.10;99.90
28171;DHT22;15458;53.346;-1.688;2023-07-29T05:06:17;14.10;99.90
28171;DHT22;15458;53.346;-1.688;2023-07-29T05:08:42;14.10;99.90
28171;DHT22;15458;53.346;-1.688;2023-07-29T05:11:08;14.10;99.90
28171;DHT22;15458;53.346;-1.688;2023-07-29T05:13:34;14.20;99.90
28171;DHT22;15458;53.346;-1.688;2023-07-29T05:15:59;14.20;99.90
28171;DHT22;15458;53.346;-1.688;2023-07-29T05:18:25;14.20;99.90
28171;DHT22;15458;53.346;-1.688;2023-07-29T05:20:50;14.20;99.90
28171;DHT22;15458;53.346;-1.688;2023-07-29T05:23:16;14.20;99.90
28171;DHT22;15458;53.346;-1.688;2023-07-29T05:25:41;14.20;99.90
28171;DHT22;15458;53.346;-1.688;2023-07-29T05:28:07;14.20;99.90
28171;DHT22;15458;53.346;-1.688;2023-07-29T05:30:33;14.20;99.90
28171;DHT22;15458;53.346;-1.688;2023-07-29T05:33:03;14.30;99.90
28171;DHT22;15458;53.346;-1.688;2023-07-29T05:35:30;14.30;99.90
28171;DHT22;15458;53.346;-1.688;2023-07-29T05:37:55;14.30;99.90
28171;DHT22;15458;53.346;-1.688;2023-07-29T05:40:21;14.30;99.90
28171;DHT22;15458;53.346;-1.688;2023-07-29T05:42:47;14.30;99.90
28171;DHT22;15458;53.346;-1.688;2023-07-29T05:45:13;14.30;99.90
28171;DHT22;15458;53.346;-1.688;2023-07-29T05:47:39;14.40;99.90
28171;DHT22;15458;53.346;-1.688;2023-07-29T05:50:05;14.40;99.90
28171;DHT22;15458;53.346;-1.688;2023-07-29T05:52:31;14.40;99.90
28171;DHT22;15458;53.346;-1.688;2023-07-29T05:54:57;14.40;99.90
28171;DHT22;15458;53.346;-1.688;2023-07-29T05:57:23;14.40;99.90
28171;DHT22;15458;53.346;-1.688;2023-07-29T05:59:48;14.40;99.90
28171;DHT22;15458;53.346;-1.688;2023-07-29T06:02:14;14.40;99.90
28171;DHT22;15458;53.346;-1.688;2023-07-29T06:04:40;14.40;99.90
28171;DHT22;15458;53.346;-1.688;2023-07-29T06:07:06;14.50;99.90
28171;DHT22;15458;53.346;-1.688;2023-07-29T06:09:32;14.40;99.90
28171;DHT22;15458;53.346;-1.688;2023-07-29T06:11:57;14.50;99.90
28171;DHT22;15458;53.346;-1.688;2023-07-29T06:14:23;14.40;99.90
28171;DHT22;15458;53.346;-1.688;2023-07-29T06:16:48;14.50;99.90
28171;DHT22;15458;53.346;-1.688;2023-07-29T06:19:14;14.50;99.90
28171;DHT22;15458;53.346;-1.688;2023-07-29T06:21:40;14.50;99.90
28171;DHT22;15458;53.346;-1.688;2023-07-29T06:24:05;14.50;99.90
28171;DHT22;15458;53.346;-1.688;2023-07-29T06:26:31;14.50;99.90
28171;DHT22;15458;53.346;-1.688;2023-07-29T06:28:56;14.50;99.90
28171;DHT22;15458;53.346;-1.688;2023-07-29T06:31:22;14.50;99.90
28171;DHT22;15458;53.346;-1.688;2023-07-29T06:33:48;14.50;99.90
28171;DHT22;15458;53.346;-1.688;2023-07-29T06:36:13;14.50;99.90
28171;DHT22;15458;53.346;-1.688;2023-07-29T06:38:39;14.60;99.90
28171;DHT22;15458;53.346;-1.688;2023-07-29T06:41:06;14.60;99.90
28171;DHT22;15458;53.346;-1.688;2023-07-29T06:43:32;14.60;99.90
28171;DHT22;15458;53.346;-1.688;2023-07-29T06:45:57;14.60;99.90
28171;DHT22;15458;53.346;-1.688;2023-07-29T06:48:23;14.70;99.90
28171;DHT22;15458;53.346;-1.688;2023-07-29T06:50:49;14.70;99.90
28171;DHT22;15458;53.346;-1.688;2023-07-29T06:53:16;14.70;99.90
28171;DHT22;15458;53.346;-1.688;2023-07-29T06:55:42;14.80;99.90
28171;DHT22;15458;53.346;-1.688;2023-07-29T06:58:08;14.80;99.90
28171;DHT22;15458;53.346;-1.688;2023-07-29T07:00:33;14.80;99.90
28171;DHT22;15458;53.346;-1.688;2023-07-29T07:02:59;14.80;99.90
28171;DHT22;15458;53.346;-1.688;2023-07-29T07:05:25;14.90;99.90
28171;DHT22;15458;53.346;-1.688;2023-07-29T07:07:50;14.90;99.90
28171;DHT22;15458;53.346;-1.688;2023-07-29T07:10:16;15.00;99.90
28171;DHT22;15458;53.346;-1.688;2023-07-29T07:12:42;15.00;99.90
28171;DHT22;15458;53.346;-1.688;2023-07-29T07:15:08;15.10;99.90
28171;DHT22;15458;53.346;-1.688;2023-07-29T07:17:33;15.10;99.90
28171;DHT22;15458;53.346;-1.688;2023-07-29T07:19:59;15.20;99.90
28171;DHT22;15458;53.346;-1.688;2023-07-29T07:22:25;15.20;99.90
28171;DHT22;15458;53.346;-1.688;2023-07-29T07:24:50;15.30;99.90
28171;DHT22;15458;53.346;-1.688;2023-07-29T07:27:16;15.30;99.90
28171;DHT22;15458;53.346;-1.688;2023-07-29T07:29:41;15.40;99.90
28171;DHT22;15458;53.346;-1.688;2023-07-29T07:32:07;15.40;99.90
28171;DHT22;15458;53.346;-1.688;2023-07-29T07:34:33;15.50;99.90
28171;DHT22;15458;53.346;-1.688;2023-07-29T07:37:00;15.50;99.90
28171;DHT22;15458;53.346;-1.688;2023-07-29T07:39:26;15.60;99.90
28171;DHT22;15458;53.346;-1.688;2023-07-29T07:41:51;15.60;99.90
28171;DHT22;15458;53.346;-1.688;2023-07-29T07:44:17;15.70;99.90
28171;DHT22;15458;53.346;-1.688;2023-07-29T07:46:45;15.70;99.90
28171;DHT22;15458;53.346;-1.688;2023-07-29T07:49:10;15.80;99.90
28171;DHT22;15458;53.346;-1.688;2023-07-29T07:51:36;15.90;99.90
28171;DHT22;15458;53.346;-1.688;2023-07-29T07:54:02;15.90;99.90
28171;DHT22;15458;53.346;-1.688;2023-07-29T07:56:29;15.90;99.90
28171;DHT22;15458;53.346;-1.688;2023-07-29T07:58:54;16.00;99.90
28171;DHT22;15458;53.346;-1.688;2023-07-29T08:01:20;16.10;99.90
28171;DHT22;15458;53.346;-1.688;2023-07-29T08:03:45;16.10;99.90
28171;DHT22;15458;53.346;-1.688;2023-07-29T08:06:11;16.20;99.90
28171;DHT22;15458;53.346;-1.688;2023-07-29T08:08:37;16.30;99.90
28171;DHT22;15458;53.346;-1.688;2023-07-29T08:11:02;16.30;99.90
28171;DHT22;15458;53.346;-1.688;2023-07-29T08:13:28;16.40;99.90
28171;DHT22;15458;53.346;-1.688;2023-07-29T08:15:54;16.40;99.90
28171;DHT22;15458;53.346;-1.688;2023-07-29T08:18:19;16.40;99.90
28171;DHT22;15458;53.346;-1.688;2023-07-29T08:20:57;16.50;99.90
28171;DHT22;15458;53.346;-1.688;2023-07-29T08:23:25;16.50;99.90
28171;DHT22;15458;53.346;-1.688;2023-07-29T08:25:56;16.60;99.90
28171;DHT22;15458;53.346;-1.688;2023-07-29T08:28:30;16.70;99.90
28171;DHT22;15458;53.346;-1.688;2023-07-29T08:30:55;16.80;99.90
28171;DHT22;15458;53.346;-1.688;2023-07-29T08:33:21;16.80;99.90
28171;DHT22;15458;53.346;-1.688;2023-07-29T08:35:47;16.80;99.90
28171;DHT22;15458;53.346;-1.688;2023-07-29T08:38:12;16.90;99.90
28171;DHT22;15458;53.346;-1.688;2023-07-29T08:40:49;17.00;99.90
28171;DHT22;15458;53.346;-1.688;2023-07-29T08:43:18;17.10;99.90
28171;DHT22;15458;53.346;-1.688;2023-07-29T08:45:44;17.20;99.90
28171;DHT22;15458;53.346;-1.688;2023-07-29T08:48:10;17.40;99.90
28171;DHT22;15458;53.346;-1.688;2023-07-29T08:50:38;17.60;99.90
28171;DHT22;15458;53.346;-1.688;2023-07-29T08:53:04;17.70;99.90
28171;DHT22;15458;53.346;-1.688;2023-07-29T08:55:33;17.80;99.90
28171;DHT22;15458;53.346;-1.688;2023-07-29T08:57:59;17.80;99.90
28171;DHT22;15458;53.346;-1.688;2023-07-29T09:00:26;17.90;99.90
28171;DHT22;15458;53.346;-1.688;2023-07-29T09:02:52;18.10;99.90
28171;DHT22;15458;53.346;-1.688;2023-07-29T09:05:18;18.20;99.90
28171;DHT22;15458;53.346;-1.688;2023-07-29T09:07:46;18.30;99.90
28171;DHT22;15458;53.346;-1.688;2023-07-29T09:10:13;18.40;99.90
28171;DHT22;15458;53.346;-1.688;2023-07-29T09:12:40;18.50;99.90
28171;DHT22;15458;53.346;-1.688;2023-07-29T09:15:06;18.60;99.90
28171;DHT22;15458;53.346;-1.688;2023-07-29T09:17:33;18.60;99.90
28171;DHT22;15458;53.346;-1.688;2023-07-29T09:19:59;18.70;99.90
28171;DHT22;15458;53.346;-1.688;2023-07-29T09:22:27;18.70;99.70
28171;DHT22;15458;53.346;-1.688;2023-07-29T09:24:53;18.80;99.10
28171;DHT22;15458;53.346;-1.688;2023-07-29T09:27:26;18.90;98.90
28171;DHT22;15458;53.346;-1.688;2023-07-29T09:29:53;19.00;97.00
28171;DHT22;15458;53.346;-1.688;2023-07-29T09:32:21;19.00;95.30
28171;DHT22;15458;53.346;-1.688;2023-07-29T09:34:47;19.10;95.60
28171;DHT22;15458;53.346;-1.688;2023-07-29T09:37:23;19.20;94.90
28171;DHT22;15458;53.346;-1.688;2023-07-29T09:39:49;19.30;94.90
28171;DHT22;15458;53.346;-1.688;2023-07-29T09:42:22;19.50;94.00
28171;DHT22;15458;53.346;-1.688;2023-07-29T09:44:49;19.70;94.00
28171;DHT22;15458;53.346;-1.688;2023-07-29T09:47:20;19.90;93.40
28171;DHT22;15458;53.346;-1.688;2023-07-29T09:49:47;20.00;92.80
28171;DHT22;15458;53.346;-1.688;2023-07-29T09:52:15;20.10;92.20
28171;DHT22;15458;53.346;-1.688;2023-07-29T09:54:43;20.30;92.40
28171;DHT22;15458;53.346;-1.688;2023-07-29T09:57:17;20.50;92.00
28171;DHT22;15458;53.346;-1.688;2023-07-29T09:59:52;20.50;91.50
28171;DHT22;15458;53.346;-1.688;2023-07-29T10:02:18;20.40;90.40
28171;DHT22;15458;53.346;-1.688;2023-07-29T10:04:45;20.20;89.90
28171;DHT22;15458;53.346;-1.688;2023-07-29T10:07:12;20.20;90.20
28171;DHT22;15458;53.346;-1.688;2023-07-29T10:09:39;20.30;90.00
28171;DHT22;15458;53.346;-1.688;2023-07-29T10:12:06;20.30;90.00
28171;DHT22;15458;53.346;-1.688;2023-07-29T10:14:33;20.30;87.50
28171;DHT22;15458;53.346;-1.688;2023-07-29T10:16:59;20.20;86.20
28171;DHT22;15458;53.346;-1.688;2023-07-29T10:19:25;20.10;86.80
28171;DHT22;15458;53.346;-1.688;2023-07-29T10:21:52;20.00;85.90
28171;DHT22;15458;53.346;-1.688;2023-07-29T10:24:19;19.90;85.40
28171;DHT22;15458;53.346;-1.688;2023-07-29T10:26:49;19.70;85.70
28171;DHT22;15458;53.346;-1.688;2023-07-29T10:29:19;19.60;86.10
28171;DHT22;15458;53.346;-1.688;2023-07-29T10:31:47;19.50;86.50
28171;DHT22;15458;53.346;-1.688;2023-07-29T10:34:14;19.40;88.30
28171;DHT22;15458;53.346;-1.688;2023-07-29T10:36:41;19.40;90.10
28171;DHT22;15458;53.346;-1.688;2023-07-29T10:39:07;19.30;90.90
28171;DHT22;15458;53.346;-1.688;2023-07-29T10:41:55;19.40;91.60
28171;DHT22;15458;53.346;-1.688;2023-07-29T10:47:37;19.30;91.70
28171;DHT22;15458;53.346;-1.688;2023-07-29T10:50:17;19.30;91.60
28171;DHT22;15458;53.346;-1.688;2023-07-29T10:52:43;19.50;91.90
28171;DHT22;15458;53.346;-1.688;2023-07-29T10:55:38;19.70;91.80
28171;DHT22;15458;53.346;-1.688;2023-07-29T10:58:14;20.00;91.30
28171;DHT22;15458;53.346;-1.688;2023-07-29T11:00:45;20.10;90.70
28171;DHT22;15458;53.346;-1.688;2023-07-29T11:03:13;20.20;90.30
28171;DHT22;15458;53.346;-1.688;2023-07-29T11:05:46;20.30;89.70
28171;DHT22;15458;53.346;-1.688;2023-07-29T11:08:26;20.30;88.90
28171;DHT22;15458;53.346;-1.688;2023-07-29T11:10:59;20.40;88.60
28171;DHT22;15458;53.346;-1.688;2023-07-29T11:13:27;20.50;88.50
28171;DHT22;15458;53.346;-1.688;2023-07-29T11:15:54;20.60;87.50
28171;DHT22;15458;53.346;-1.688;2023-07-29T11:18:21;20.70;87.70
28171;DHT22;15458;53.346;-1.688;2023-07-29T11:20:46;20.80;87.70
28171;DHT22;15458;53.346;-1.688;2023-07-29T11:23:13;20.70;86.40
28171;DHT22;15458;53.346;-1.688;2023-07-29T11:25:39;20.60;85.60
28171;DHT22;15458;53.346;-1.688;2023-07-29T11:28:05;20.60;86.10
28171;DHT22;15458;53.346;-1.688;2023-07-29T11:30:30;20.80;86.10
28171;DHT22;15458;53.346;-1.688;2023-07-29T11:32:57;20.90;84.00
28171;DHT22;15458;53.346;-1.688;2023-07-29T11:35:24;20.90;82.90
28171;DHT22;15458;53.346;-1.688;2023-07-29T11:37:51;21.10;82.00
28171;DHT22;15458;53.346;-1.688;2023-07-29T11:40:19;21.30;81.00
28171;DHT22;15458;53.346;-1.688;2023-07-29T11:42:50;21.50;78.80
28171;DHT22;15458;53.346;-1.688;2023-07-29T11:45:16;21.60;79.50
28171;DHT22;15458;53.346;-1.688;2023-07-29T11:47:42;21.80;78.60
28171;DHT22;15458;53.346;-1.688;2023-07-29T11:50:09;21.90;77.70
28171;DHT22;15458;53.346;-1.688;2023-07-29T11:52:36;22.10;75.80
28171;DHT22;15458;53.346;-1.688;2023-07-29T11:55:04;22.30;74.60
28171;DHT22;15458;53.346;-1.688;2023-07-29T11:57:31;22.50;73.90
28171;DHT22;15458;53.346;-1.688;2023-07-29T11:59:59;22.70;73.60
28171;DHT22;15458;53.346;-1.688;2023-07-29T12:02:25;22.80;72.90
28171;DHT22;15458;53.346;-1.688;2023-07-29T12:04:51;22.90;71.20
28171;DHT22;15458;53.346;-1.688;2023-07-29T12:07:18;23.00;70.80
28171;DHT22;15458;53.346;-1.688;2023-07-29T12:09:45;23.10;70.00
28171;DHT22;15458;53.346;-1.688;2023-07-29T12:12:11;23.30;70.40
28171;DHT22;15458;53.346;-1.688;2023-07-29T12:14:37;23.40;68.50
28171;DHT22;15458;53.346;-1.688;2023-07-29T12:17:04;23.50;68.10
28171;DHT22;15458;53.346;-1.688;2023-07-29T12:19:34;23.70;67.70
28171;DHT22;15458;53.346;-1.688;2023-07-29T12:22:01;23.80;66.90
28171;DHT22;15458;53.346;-1.688;2023-07-29T12:24:29;23.80;66.40
28171;DHT22;15458;53.346;-1.688;2023-07-29T12:26:55;23.70;66.30
28171;DHT22;15458;53.346;-1.688;2023-07-29T12:29:21;23.70;66.80
28171;DHT22;15458;53.346;-1.688;2023-07-29T12:31:46;23.70;66.70
28171;DHT22;15458;53.346;-1.688;2023-07-29T12:34:20;23.70;67.00
28171;DHT22;15458;53.346;-1.688;2023-07-29T12:36:51;23.80;66.70
28171;DHT22;15458;53.346;-1.688;2023-07-29T12:41:50;23.50;66.60
28171;DHT22;15458;53.346;-1.688;2023-07-29T12:44:16;23.30;66.90
28171;DHT22;15458;53.346;-1.688;2023-07-29T12:46:42;23.30;67.60
28171;DHT22;15458;53.346;-1.688;2023-07-29T12:49:08;23.30;68.10
28171;DHT22;15458;53.346;-1.688;2023-07-29T12:51:34;23.40;67.60
28171;DHT22;15458;53.346;-1.688;2023-07-29T12:54:00;23.50;66.70
28171;DHT22;15458;53.346;-1.688;2023-07-29T12:56:26;23.60;66.90
28171;DHT22;15458;53.346;-1.688;2023-07-29T12:58:52;23.70;66.80
28171;DHT22;15458;53.346;-1.688;2023-07-29T13:01:18;23.70;66.30
28171;DHT22;15458;53.346;-1.688;2023-07-29T13:03:44;23.60;66.50
28171;DHT22;15458;53.346;-1.688;2023-07-29T13:06:10;23.50;66.50
28171;DHT22;15458;53.346;-1.688;2023-07-29T13:08:36;23.60;66.90
28171;DHT22;15458;53.346;-1.688;2023-07-29T13:11:02;23.60;66.20
28171;DHT22;15458;53.346;-1.688;2023-07-29T13:13:28;23.60;65.50
28171;DHT22;15458;53.346;-1.688;2023-07-29T13:15:54;23.70;65.60
28171;DHT22;15458;53.346;-1.688;2023-07-29T13:18:20;23.70;65.30
28171;DHT22;15458;53.346;-1.688;2023-07-29T13:20:46;23.80;65.40
28171;DHT22;15458;53.346;-1.688;2023-07-29T13:23:12;23.90;64.60
28171;DHT22;15458;53.346;-1.688;2023-07-29T13:25:38;24.00;64.00
28171;DHT22;15458;53.346;-1.688;2023-07-29T13:28:03;23.90;63.10
28171;DHT22;15458;53.346;-1.688;2023-07-29T13:30:31;23.70;63.00
28171;DHT22;15458;53.346;-1.688;2023-07-29T13:32:57;23.60;63.30
28171;DHT22;15458;53.346;-1.688;2023-07-29T13:35:22;23.50;62.90
28171;DHT22;15458;53.346;-1.688;2023-07-29T13:37:48;23.30;62.50
28171;DHT22;15458;53.346;-1.688;2023-07-29T13:40:14;23.30;62.50
28171;DHT22;15458;53.346;-1.688;2023-07-29T13:42:40;23.40;62.90
28171;DHT22;15458;53.346;-1.688;2023-07-29T13:45:07;23.60;62.50
28171;DHT22;15458;53.346;-1.688;2023-07-29T13:47:32;23.50;62.00
28171;DHT22;15458;53.346;-1.688;2023-07-29T13:49:59;23.40;61.80
28171;DHT22;15458;53.346;-1.688;2023-07-29T13:52:25;23.30;62.40
28171;DHT22;15458;53.346;-1.688;2023-07-29T13:54:50;23.30;62.40
28171;DHT22;15458;53.346;-1.688;2023-07-29T13:57:16;23.40;62.90
28171;DHT22;15458;53.346;-1.688;2023-07-29T13:59:42;23.70;63.20
28171;DHT22;15458;53.346;-1.688;2023-07-29T14:02:07;23.90;62.50
28171;DHT22;15458;53.346;-1.688;2023-07-29T14:04:33;23.90;62.10
28171;DHT22;15458;53.346;-1.688;2023-07-29T14:06:59;23.70;61.90
28171;DHT22;15458;53.346;-1.688;2023-07-29T14:09:26;23.70;62.40
28171;DHT22;15458;53.346;-1.688;2023-07-29T14:11:53;23.70;62.70
28171;DHT22;15458;53.346;-1.688;2023-07-29T14:14:19;23.50;62.90
28171;DHT22;15458;53.346;-1.688;2023-07-29T14:16:44;23.30;63.30
28171;DHT22;15458;53.346;-1.688;2023-07-29T14:19:10;23.20;63.50
28171;DHT22;15458;53.346;-1.688;2023-07-29T14:21:35;23.20;64.00
28171;DHT22;15458;53.346;-1.688;2023-07-29T14:24:01;23.30;64.40
28171;DHT22;15458;53.346;-1.688;2023-07-29T14:26:27;23.50;65.10
28171;DHT22;15458;53.346;-1.688;2023-07-29T14:28:52;23.70;64.90
28171;DHT22;15458;53.346;-1.688;2023-07-29T14:31:18;23.90;64.40
28171;DHT22;15458;53.346;-1.688;2023-07-29T14:33:44;24.10;64.20
28171;DHT22;15458;53.346;-1.688;2023-07-29T14:36:10;24.30;64.10
28171;DHT22;15458;53.346;-1.688;2023-07-29T14:38:36;24.20;63.70
28171;DHT22;15458;53.346;-1.688;2023-07-29T14:41:03;23.90;64.00
28171;DHT22;15458;53.346;-1.688;2023-07-29T14:43:30;23.60;64.30
28171;DHT22;15458;53.346;-1.688;2023-07-29T14:45:56;23.40;64.90
28171;DHT22;15458;53.346;-1.688;2023-07-29T14:48:22;23.50;65.60
28171;DHT22;15458;53.346;-1.688;2023-07-29T14:50:48;23.50;65.80
28171;DHT22;15458;53.346;-1.688;2023-07-29T14:53:14;23.50;66.10
28171;DHT22;15458;53.346;-1.688;2023-07-29T14:55:39;23.30;66.20
28171;DHT22;15458;53.346;-1.688;2023-07-29T14:58:05;23.20;66.70
28171;DHT22;15458;53.346;-1.688;2023-07-29T15:00:31;23.30;66.50
28171;DHT22;15458;53.346;-1.688;2023-07-29T15:02:56;23.40;66.50
28171;DHT22;15458;53.346;-1.688;2023-07-29T15:05:22;23.50;66.50
28171;DHT22;15458;53.346;-1.688;2023-07-29T15:07:47;23.60;66.10
28171;DHT22;15458;53.346;-1.688;2023-07-29T15:10:17;23.50;66.30
28171;DHT22;15458;53.346;-1.688;2023-07-29T15:12:43;23.50;66.50
28171;DHT22;15458;53.346;-1.688;2023-07-29T15:15:10;23.40;66.70
28171;DHT22;15458;53.346;-1.688;2023-07-29T15:17:36;23.30;67.20
28171;DHT22;15458;53.346;-1.688;2023-07-29T15:20:03;23.10;66.70
28171;DHT22;15458;53.346;-1.688;2023-07-29T15:22:31;23.00;67.20